sensor_id;sensor_type;location;lat;lon;timestamp;P1;durP1;ratioP1;P2;durP2;ratioP2
19095;SDS011;9680;52.520;13.332;2023-05-10T00:01:17;8.65;;;4.70;;
19095;SDS011;9680;52.520;13.332;2023-05-10T00:03:44;10.88;;;4.72;;
19095;SDS011;9680;52.520;13.332;2023-05-10T00:06:12;8.02;;;4.95;;
19095;SDS011;9680;52.520;13.332;2023-05-10T00:08:39;8.43;;;4.97;;
19095;SDS011;9680;52.520;13.332;2023-05-10T00:11:06;9.18;;;4.72;;
19095;SDS011;9680;52.520;13.332;2023-05-10T00:13:32;8.48;;;4.22;;
19095;SDS011;9680;52.520;13.332;2023-05-10T00:15:59;9.32;;;4.75;;
19095;SDS011;9680;52.520;13.332;2023-05-10T00:18:26;7.90;;;4.60;;
19095;SDS011;9680;52.520;13.332;2023-05-10T00:20:53;7.63;;;4.45;;
19095;SDS011;9680;52.520;13.332;2023-05-10T00:23:21;13.57;;;4.97;;
19095;SDS011;9680;52.520;13.332;2023-05-10T00:25:48;8.23;;;4.72;;
19095;SDS011;9680;52.520;13.332;2023-05-10T00:28:15;7.50;;;4.50;;
19095;SDS011;9680;52.520;13.332;2023-05-10T00:30:43;11.43;;;4.90;;
19095;SDS011;9680;52.520;13.332;2023-05-10T00:33:10;10.45;;;5.07;;
19095;SDS011;9680;52.520;13.332;2023-05-10T00:35:36;8.63;;;4.70;;
19095;SDS011;9680;52.520;13.332;2023-05-10T00:38:03;9.52;;;4.85;;
19095;SDS011;9680;52.520;13.332;2023-05-10T00:40:31;9.25;;;4.70;;
19095;SDS011;9680;52.520;13.332;2023-05-10T00:43:03;9.83;;;4.93;;
19095;SDS011;9680;52.520;13.332;2023-05-10T00:45:30;10.77;;;5.30;;
19095;SDS011;9680;52.520;13.332;2023-05-10T00:47:57;8.02;;;4.72;;
19095;SDS011;9680;52.520;13.332;2023-05-10T00:50:25;12.05;;;4.80;;
19095;SDS011;9680;52.520;13.332;2023-05-10T00:52:52;10.18;;;4.93;;
19095;SDS011;9680;52.520;13.332;2023-05-10T00:55:19;12.73;;;5.20;;
19095;SDS011;9680;52.520;13.332;2023-05-10T00:57:48;8.70;;;5.15;;
19095;SDS011;9680;52.520;13.332;2023-05-10T01:00:15;10.43;;;5.47;;
19095;SDS011;9680;52.520;13.332;2023-05-10T01:02:43;8.10;;;4.88;;
19095;SDS011;9680;52.520;13.332;2023-05-10T01:05:11;8.93;;;5.05;;
19095;SDS011;9680;52.520;13.332;2023-05-10T01:07:38;8.63;;;5.10;;
19095;SDS011;9680;52.520;13.332;2023-05-10T01:10:06;11.80;;;5.60;;
19095;SDS011;9680;52.520;13.332;2023-05-10T01:12:35;10.05;;;5.10;;
19095;SDS011;9680;52.520;13.332;2023-05-10T01:15:06;10.88;;;5.47;;
19095;SDS011;9680;52.520;13.332;2023-05-10T01:17:37;12.38;;;5.40;;
19095;SDS011;9680;52.520;13.332;2023-05-10T01:20:06;11.80;;;4.87;;
19095;SDS011;9680;52.520;13.332;2023-05-10T01:22:44;8.87;;;5.07;;
19095;SDS011;9680;52.520;13.332;2023-05-10T01:25:37;9.35;;;5.30;;
19095;SDS011;9680;52.520;13.332;2023-05-10T01:31:17;11.15;;;5.55;;
19095;SDS011;9680;52.520;13.332;2023-05-10T01:33:52;9.77;;;5.50;;
19095;SDS011;9680;52.520;13.332;2023-05-10T01:36:23;8.65;;;5.32;;
19095;SDS011;9680;52.520;13.332;2023-05-10T01:38:57;10.20;;;5.45;;
19095;SDS011;9680;52.520;13.332;2023-05-10T01:41:31;9.27;;;5.22;;
19095;SDS011;9680;52.520;13.332;2023-05-10T01:44:09;8.87;;;5.23;;
19095;SDS011;9680;52.520;13.332;2023-05-10T01:46:44;8.52;;;4.85;;
19095;SDS011;9680;52.520;13.332;2023-05-10T01:49:20;13.13;;;5.13;;
19095;SDS011;9680;52.520;13.332;2023-05-10T01:51:50;9.00;;;5.17;;
19095;SDS011;9680;52.520;13.332;2023-05-10T01:54:20;8.80;;;5.00;;
19095;SDS011;9680;52.520;13.332;2023-05-10T01:56:50;8.83;;;5.10;;
19095;SDS011;9680;52.520;13.332;2023-05-10T01:59:22;10.23;;;5.40;;
19095;SDS011;9680;52.520;13.332;2023-05-10T02:01:54;9.90;;;5.40;;
19095;SDS011;9680;52.520;13.332;2023-05-10T02:04:25;12.50;;;5.67;;
19095;SDS011;9680;52.520;13.332;2023-05-10T02:06:54;10.07;;;5.13;;
19095;SDS011;9680;52.520;13.332;2023-05-10T02:09:22;9.13;;;5.07;;
19095;SDS011;9680;52.520;13.332;2023-05-10T02:11:51;9.90;;;5.30;;
19095;SDS011;9680;52.520;13.332;2023-05-10T02:14:20;8.80;;;5.47;;
19095;SDS011;9680;52.520;13.332;2023-05-10T02:16:49;12.37;;;5.13;;
19095;SDS011;9680;52.520;13.332;2023-05-10T02:19:19;10.03;;;5.47;;
19095;SDS011;9680;52.520;13.332;2023-05-10T02:21:49;9.77;;;5.10;;
19095;SDS011;9680;52.520;13.332;2023-05-10T02:24:17;8.73;;;5.03;;
19095;SDS011;9680;52.520;13.332;2023-05-10T02:26:46;9.37;;;4.90;;
19095;SDS011;9680;52.520;13.332;2023-05-10T02:29:15;10.93;;;4.77;;
19095;SDS011;9680;52.520;13.332;2023-05-10T02:31:43;9.00;;;5.23;;
19095;SDS011;9680;52.520;13.332;2023-05-10T02:34:10;7.73;;;4.83;;
19095;SDS011;9680;52.520;13.332;2023-05-10T02:36:38;12.50;;;4.77;;
19095;SDS011;9680;52.520;13.332;2023-05-10T02:39:07;8.67;;;5.10;;
19095;SDS011;9680;52.520;13.332;2023-05-10T02:41:37;10.83;;;5.47;;
19095;SDS011;9680;52.520;13.332;2023-05-10T02:44:07;9.60;;;5.47;;
19095;SDS011;9680;52.520;13.332;2023-05-10T02:46:35;10.33;;;5.60;;
19095;SDS011;9680;52.520;13.332;2023-05-10T02:49:03;9.30;;;5.03;;
19095;SDS011;9680;52.520;13.332;2023-05-10T02:51:31;10.50;;;5.00;;
19095;SDS011;9680;52.520;13.332;2023-05-10T02:54:01;7.67;;;4.60;;
19095;SDS011;9680;52.520;13.332;2023-05-10T02:56:38;8.17;;;4.80;;
19095;SDS011;9680;52.520;13.332;2023-05-10T02:59:09;10.13;;;4.90;;
19095;SDS011;9680;52.520;13.332;2023-05-10T03:01:36;11.30;;;5.13;;
19095;SDS011;9680;52.520;13.332;2023-05-10T03:04:03;11.10;;;5.53;;
19095;SDS011;9680;52.520;13.332;2023-05-10T03:06:30;11.67;;;4.93;;
19095;SDS011;9680;52.520;13.332;2023-05-10T03:08:57;7.77;;;4.90;;
19095;SDS011;9680;52.520;13.332;2023-05-10T03:11:28;12.17;;;5.33;;
19095;SDS011;9680;52.520;13.332;2023-05-10T03:14:13;13.40;;;5.20;;
19095;SDS011;9680;52.520;13.332;2023-05-10T03:16:52;12.13;;;4.80;;
19095;SDS011;9680;52.520;13.332;2023-05-10T03:19:24;10.07;;;4.90;;
19095;SDS011;9680;52.520;13.332;2023-05-10T03:21:57;10.83;;;5.20;;
19095;SDS011;9680;52.520;13.332;2023-05-10T03:24:31;8.90;;;4.97;;
19095;SDS011;9680;52.520;13.332;2023-05-10T03:27:00;10.03;;;4.93;;
19095;SDS011;9680;52.520;13.332;2023-05-10T03:29:31;9.77;;;5.00;;
19095;SDS011;9680;52.520;13.332;2023-05-10T03:31:59;9.13;;;4.90;;
19095;SDS011;9680;52.520;13.332;2023-05-10T03:34:29;12.67;;;4.70;;
19095;SDS011;9680;52.520;13.332;2023-05-10T03:36:57;8.70;;;4.50;;
19095;SDS011;9680;52.520;13.332;2023-05-10T03:39:26;9.93;;;4.67;;
19095;SDS011;9680;52.520;13.332;2023-05-10T03:41:56;14.80;;;4.60;;
19095;SDS011;9680;52.520;13.332;2023-05-10T03:44:23;9.20;;;4.87;;
19095;SDS011;9680;52.520;13.332;2023-05-10T03:46:51;9.40;;;4.40;;
19095;SDS011;9680;52.520;13.332;2023-05-10T03:49:18;7.93;;;4.40;;
19095;SDS011;9680;52.520;13.332;2023-05-10T03:51:45;11.23;;;4.77;;
19095;SDS011;9680;52.520;13.332;2023-05-10T03:54:12;11.10;;;4.50;;
19095;SDS011;9680;52.520;13.332;2023-05-10T03:56:40;11.40;;;4.90;;
19095;SDS011;9680;52.520;13.332;2023-05-10T03:59:07;9.47;;;4.73;;
19095;SDS011;9680;52.520;13.332;2023-05-10T04:01:34;9.70;;;4.50;;
19095;SDS011;9680;52.520;13.332;2023-05-10T04:04:03;9.60;;;4.60;;
19095;SDS011;9680;52.520;13.332;2023-05-10T04:06:31;9.50;;;4.13;;
19095;SDS011;9680;52.520;13.332;2023-05-10T04:08:58;12.93;;;4.80;;
19095;SDS011;9680;52.520;13.332;2023-05-10T04:11:29;10.47;;;4.47;;
19095;SDS011;9680;52.520;13.332;2023-05-10T04:13:56;11.07;;;4.17;;
19095;SDS011;9680;52.520;13.332;2023-05-10T04:16:23;9.30;;;4.50;;
19095;SDS011;9680;52.520;13.332;2023-05-10T04:18:49;9.67;;;4.40;;
19095;SDS011;9680;52.520;13.332;2023-05-10T04:21:18;8.60;;;4.50;;
19095;SDS011;9680;52.520;13.332;2023-05-10T04:23:44;8.97;;;4.57;;
19095;SDS011;9680;52.520;13.332;2023-05-10T04:26:12;17.07;;;4.40;;
19095;SDS011;9680;52.520;13.332;2023-05-10T04:28:39;8.60;;;4.37;;
19095;SDS011;9680;52.520;13.332;2023-05-10T04:31:06;10.57;;;5.00;;
19095;SDS011;9680;52.520;13.332;2023-05-10T04:33:34;8.07;;;4.03;;
19095;SDS011;9680;52.520;13.332;2023-05-10T04:36:01;8.63;;;4.63;;
19095;SDS011;9680;52.520;13.332;2023-05-10T04:38:30;8.80;;;4.17;;
19095;SDS011;9680;52.520;13.332;2023-05-10T04:41:04;7.80;;;4.43;;
19095;SDS011;9680;52.520;13.332;2023-05-10T04:43:32;9.30;;;4.67;;
19095;SDS011;9680;52.520;13.332;2023-05-10T04:45:58;10.83;;;4.40;;
19095;SDS011;9680;52.520;13.332;2023-05-10T04:48:25;10.37;;;4.43;;
19095;SDS011;9680;52.520;13.332;2023-05-10T04:50:52;10.63;;;4.67;;
19095;SDS011;9680;52.520;13.332;2023-05-10T04:53:19;9.03;;;4.33;;
19095;SDS011;9680;52.520;13.332;2023-05-10T04:55:48;8.53;;;4.30;;
19095;SDS011;9680;52.520;13.332;2023-05-10T04:58:14;7.20;;;3.73;;
19095;SDS011;9680;52.520;13.332;2023-05-10T05:00:41;6.73;;;3.93;;
19095;SDS011;9680;52.520;13.332;2023-05-10T05:03:09;8.57;;;3.97;;
19095;SDS011;9680;52.520;13.332;2023-05-10T05:05:35;9.00;;;4.27;;
19095;SDS011;9680;52.520;13.332;2023-05-10T05:08:02;7.27;;;4.00;;
19095;SDS011;9680;52.520;13.332;2023-05-10T05:10:29;9.00;;;3.90;;
19095;SDS011;9680;52.520;13.332;2023-05-10T05:12:58;5.83;;;3.70;;
19095;SDS011;9680;52.520;13.332;2023-05-10T05:15:24;11.07;;;4.00;;
19095;SDS011;9680;52.520;13.332;2023-05-10T05:17:51;7.73;;;3.87;;
19095;SDS011;9680;52.520;13.332;2023-05-10T05:20:18;8.73;;;4.07;;
19095;SDS011;9680;52.520;13.332;2023-05-10T05:22:45;13.70;;;4.27;;
19095;SDS011;9680;52.520;13.332;2023-05-10T05:25:11;6.53;;;3.50;;
19095;SDS011;9680;52.520;13.332;2023-05-10T05:27:38;11.23;;;3.67;;
19095;SDS011;9680;52.520;13.332;2023-05-10T05:30:07;11.33;;;3.60;;
19095;SDS011;9680;52.520;13.332;2023-05-10T05:32:35;6.50;;;3.30;;
19095;SDS011;9680;52.520;13.332;2023-05-10T05:35:03;6.70;;;3.60;;
19095;SDS011;9680;52.520;13.332;2023-05-10T05:37:30;8.27;;;3.97;;
19095;SDS011;9680;52.520;13.332;2023-05-10T05:39:57;8.38;;;3.58;;
19095;SDS011;9680;52.520;13.332;2023-05-10T05:42:25;6.82;;;3.70;;
19095;SDS011;9680;52.520;13.332;2023-05-10T05:44:52;8.50;;;3.28;;
19095;SDS011;9680;52.520;13.332;2023-05-10T05:47:21;6.10;;;3.53;;
19095;SDS011;9680;52.520;13.332;2023-05-10T05:49:48;8.23;;;3.60;;
19095;SDS011;9680;52.520;13.332;2023-05-10T05:52:15;6.80;;;3.60;;
19095;SDS011;9680;52.520;13.332;2023-05-10T05:54:42;5.60;;;3.20;;
19095;SDS011;9680;52.520;13.332;2023-05-10T05:57:09;9.70;;;2.92;;
19095;SDS011;9680;52.520;13.332;2023-05-10T05:59:35;7.00;;;2.92;;
19095;SDS011;9680;52.520;13.332;2023-05-10T06:02:07;11.77;;;2.92;;
19095;SDS011;9680;52.520;13.332;2023-05-10T06:04:35;6.75;;;2.90;;
19095;SDS011;9680;52.520;13.332;2023-05-10T06:07:02;8.73;;;3.50;;
19095;SDS011;9680;52.520;13.332;2023-05-10T06:09:29;5.60;;;3.08;;
19095;SDS011;9680;52.520;13.332;2023-05-10T06:11:55;6.88;;;2.90;;
19095;SDS011;9680;52.520;13.332;2023-05-10T06:14:22;5.78;;;2.85;;
19095;SDS011;9680;52.520;13.332;2023-05-10T06:16:49;5.40;;;3.20;;
19095;SDS011;9680;52.520;13.332;2023-05-10T06:19:16;14.63;;;3.03;;
19095;SDS011;9680;52.520;13.332;2023-05-10T06:21:44;7.45;;;3.17;;
19095;SDS011;9680;52.520;13.332;2023-05-10T06:24:11;6.90;;;3.30;;
19095;SDS011;9680;52.520;13.332;2023-05-10T06:26:37;6.63;;;3.30;;
19095;SDS011;9680;52.520;13.332;2023-05-10T06:29:04;7.28;;;3.03;;
19095;SDS011;9680;52.520;13.332;2023-05-10T06:31:31;7.10;;;3.47;;
19095;SDS011;9680;52.520;13.332;2023-05-10T06:33:58;5.38;;;2.80;;
19095;SDS011;9680;52.520;13.332;2023-05-10T06:36:25;10.32;;;3.30;;
19095;SDS011;9680;52.520;13.332;2023-05-10T06:38:53;7.97;;;2.85;;
19095;SDS011;9680;52.520;13.332;2023-05-10T06:41:20;11.57;;;3.65;;
19095;SDS011;9680;52.520;13.332;2023-05-10T06:43:47;6.57;;;2.95;;
19095;SDS011;9680;52.520;13.332;2023-05-10T06:46:14;4.20;;;2.60;;
19095;SDS011;9680;52.520;13.332;2023-05-10T06:48:41;5.00;;;2.67;;
19095;SDS011;9680;52.520;13.332;2023-05-10T06:51:07;13.07;;;3.05;;
19095;SDS011;9680;52.520;13.332;2023-05-10T06:53:34;4.88;;;2.65;;
19095;SDS011;9680;52.520;13.332;2023-05-10T06:56:02;4.30;;;2.67;;
19095;SDS011;9680;52.520;13.332;2023-05-10T06:58:29;4.07;;;2.42;;
19095;SDS011;9680;52.520;13.332;2023-05-10T07:01:01;6.82;;;2.45;;
19095;SDS011;9680;52.520;13.332;2023-05-10T07:03:28;4.45;;;2.60;;
19095;SDS011;9680;52.520;13.332;2023-05-10T07:05:59;6.75;;;2.33;;
19095;SDS011;9680;52.520;13.332;2023-05-10T07:08:28;12.50;;;2.70;;
19095;SDS011;9680;52.520;13.332;2023-05-10T07:10:59;7.65;;;3.00;;
19095;SDS011;9680;52.520;13.332;2023-05-10T07:13:27;5.07;;;2.83;;
19095;SDS011;9680;52.520;13.332;2023-05-10T07:15:54;7.88;;;3.40;;
19095;SDS011;9680;52.520;13.332;2023-05-10T07:18:21;4.40;;;2.50;;
19095;SDS011;9680;52.520;13.332;2023-05-10T07:20:48;4.95;;;2.50;;
19095;SDS011;9680;52.520;13.332;2023-05-10T07:23:14;3.95;;;2.40;;
19095;SDS011;9680;52.520;13.332;2023-05-10T07:25:44;7.82;;;2.97;;
19095;SDS011;9680;52.520;13.332;2023-05-10T07:28:11;6.40;;;2.70;;
19095;SDS011;9680;52.520;13.332;2023-05-10T07:30:41;4.45;;;2.65;;
19095;SDS011;9680;52.520;13.332;2023-05-10T07:33:09;6.00;;;2.67;;
19095;SDS011;9680;52.520;13.332;2023-05-10T07:35:36;4.40;;;2.40;;
19095;SDS011;9680;52.520;13.332;2023-05-10T07:38:03;4.22;;;2.63;;
19095;SDS011;9680;52.520;13.332;2023-05-10T07:40:30;5.25;;;2.50;;
19095;SDS011;9680;52.520;13.332;2023-05-10T07:42:57;8.00;;;2.67;;
19095;SDS011;9680;52.520;13.332;2023-05-10T07:45:25;3.63;;;2.30;;
19095;SDS011;9680;52.520;13.332;2023-05-10T07:47:53;8.38;;;2.35;;
19095;SDS011;9680;52.520;13.332;2023-05-10T07:50:20;5.32;;;2.47;;
19095;SDS011;9680;52.520;13.332;2023-05-10T07:52:47;5.80;;;2.50;;
19095;SDS011;9680;52.520;13.332;2023-05-10T07:55:13;5.40;;;2.60;;
19095;SDS011;9680;52.520;13.332;2023-05-10T07:57:41;5.70;;;2.28;;
19095;SDS011;9680;52.520;13.332;2023-05-10T08:00:08;3.50;;;2.20;;
19095;SDS011;9680;52.520;13.332;2023-05-10T08:02:41;5.22;;;2.42;;
19095;SDS011;9680;52.520;13.332;2023-05-10T08:05:09;3.80;;;2.30;;
19095;SDS011;9680;52.520;13.332;2023-05-10T08:07:36;4.10;;;2.30;;
19095;SDS011;9680;52.520;13.332;2023-05-10T08:10:03;7.47;;;2.92;;
19095;SDS011;9680;52.520;13.332;2023-05-10T08:12:30;5.55;;;2.75;;
19095;SDS011;9680;52.520;13.332;2023-05-10T08:14:57;3.95;;;2.60;;
19095;SDS011;9680;52.520;13.332;2023-05-10T08:17:25;4.28;;;2.50;;
19095;SDS011;9680;52.520;13.332;2023-05-10T08:19:52;5.80;;;2.53;;
19095;SDS011;9680;52.520;13.332;2023-05-10T08:22:20;9.40;;;3.88;;
19095;SDS011;9680;52.520;13.332;2023-05-10T08:24:47;3.35;;;2.20;;
19095;SDS011;9680;52.520;13.332;2023-05-10T08:27:14;4.13;;;2.55;;
19095;SDS011;9680;52.520;13.332;2023-05-10T08:29:41;4.70;;;2.30;;
19095;SDS011;9680;52.520;13.332;2023-05-10T08:32:07;4.32;;;2.35;;
19095;SDS011;9680;52.520;13.332;2023-05-10T08:34:34;5.05;;;2.38;;
19095;SDS011;9680;52.520;13.332;2023-05-10T08:37:01;7.97;;;2.78;;
19095;SDS011;9680;52.520;13.332;2023-05-10T08:39:29;4.00;;;2.28;;
19095;SDS011;9680;52.520;13.332;2023-05-10T08:42:00;4.03;;;2.55;;
19095;SDS011;9680;52.520;13.332;2023-05-10T08:44:30;3.72;;;2.50;;
19095;SDS011;9680;52.520;13.332;2023-05-10T08:46:58;6.18;;;2.30;;
19095;SDS011;9680;52.520;13.332;2023-05-10T08:49:29;6.15;;;2.88;;
19095;SDS011;9680;52.520;13.332;2023-05-10T08:51:58;7.78;;;2.55;;
19095;SDS011;9680;52.520;13.332;2023-05-10T08:54:29;4.22;;;2.40;;
19095;SDS011;9680;52.520;13.332;2023-05-10T08:56:57;3.38;;;2.40;;
19095;SDS011;9680;52.520;13.332;2023-05-10T08:59:24;4.63;;;2.67;;
19095;SDS011;9680;52.520;13.332;2023-05-10T09:01:51;6.15;;;2.45;;
19095;SDS011;9680;52.520;13.332;2023-05-10T09:04:20;6.10;;;2.65;;
19095;SDS011;9680;52.520;13.332;2023-05-10T09:06:47;6.25;;;2.70;;
19095;SDS011;9680;52.520;13.332;2023-05-10T09:09:14;6.07;;;2.80;;
19095;SDS011;9680;52.520;13.332;2023-05-10T09:11:43;4.85;;;2.45;;
19095;SDS011;9680;52.520;13.332;2023-05-10T09:14:11;5.03;;;2.40;;
19095;SDS011;9680;52.520;13.332;2023-05-10T09:16:39;6.38;;;2.58;;
19095;SDS011;9680;52.520;13.332;2023-05-10T09:19:06;4.53;;;2.50;;
19095;SDS011;9680;52.520;13.332;2023-05-10T09:21:34;4.10;;;2.40;;
19095;SDS011;9680;52.520;13.332;2023-05-10T09:24:02;3.72;;;2.40;;
19095;SDS011;9680;52.520;13.332;2023-05-10T09:26:29;7.25;;;2.67;;
19095;SDS011;9680;52.520;13.332;2023-05-10T09:28:58;4.53;;;2.58;;
19095;SDS011;9680;52.520;13.332;2023-05-10T09:31:42;6.57;;;2.58;;
19095;SDS011;9680;52.520;13.332;2023-05-10T09:34:11;7.28;;;2.55;;
19095;SDS011;9680;52.520;13.332;2023-05-10T09:36:50;4.68;;;2.50;;
19095;SDS011;9680;52.520;13.332;2023-05-10T09:39:17;7.20;;;2.70;;
19095;SDS011;9680;52.520;13.332;2023-05-10T09:41:44;4.68;;;2.72;;
19095;SDS011;9680;52.520;13.332;2023-05-10T09:44:14;6.65;;;2.97;;
19095;SDS011;9680;52.520;13.332;2023-05-10T09:46:48;7.00;;;2.58;;
19095;SDS011;9680;52.520;13.332;2023-05-10T09:49:15;5.57;;;2.78;;
19095;SDS011;9680;52.520;13.332;2023-05-10T09:51:42;6.18;;;2.67;;
19095;SDS011;9680;52.520;13.332;2023-05-10T09:54:09;4.35;;;2.53;;
19095;SDS011;9680;52.520;13.332;2023-05-10T09:56:37;7.10;;;2.88;;
19095;SDS011;9680;52.520;13.332;2023-05-10T09:59:06;10.43;;;2.70;;
19095;SDS011;9680;52.520;13.332;2023-05-10T10:01:35;5.60;;;2.70;;
19095;SDS011;9680;52.520;13.332;2023-05-10T10:04:03;4.47;;;2.60;;
19095;SDS011;9680;52.520;13.332;2023-05-10T10:06:34;10.05;;;2.95;;
19095;SDS011;9680;52.520;13.332;2023-05-10T10:09:02;3.25;;;2.38;;
19095;SDS011;9680;52.520;13.332;2023-05-10T10:11:28;4.72;;;2.50;;
19095;SDS011;9680;52.520;13.332;2023-05-10T10:13:55;6.55;;;2.88;;
19095;SDS011;9680;52.520;13.332;2023-05-10T10:16:22;29.05;;;4.05;;
19095;SDS011;9680;52.520;13.332;2023-05-10T10:18:52;8.50;;;2.70;;
19095;SDS011;9680;52.520;13.332;2023-05-10T10:21:19;5.35;;;2.72;;
19095;SDS011;9680;52.520;13.332;2023-05-10T10:23:46;4.57;;;2.70;;
19095;SDS011;9680;52.520;13.332;2023-05-10T10:26:13;6.78;;;2.78;;
19095;SDS011;9680;52.520;13.332;2023-05-10T10:28:44;7.63;;;3.10;;
19095;SDS011;9680;52.520;13.332;2023-05-10T10:31:21;4.85;;;2.50;;
19095;SDS011;9680;52.520;13.332;2023-05-10T10:33:58;5.85;;;2.28;;
19095;SDS011;9680;52.520;13.332;2023-05-10T10:36:28;6.00;;;2.40;;
19095;SDS011;9680;52.520;13.332;2023-05-10T10:38:56;4.22;;;2.55;;
19095;SDS011;9680;52.520;13.332;2023-05-10T10:41:30;7.10;;;2.67;;
19095;SDS011;9680;52.520;13.332;2023-05-10T10:47:06;3.83;;;2.72;;
19095;SDS011;9680;52.520;13.332;2023-05-10T10:49:51;5.57;;;2.55;;
19095;SDS011;9680;52.520;13.332;2023-05-10T10:52:23;6.32;;;2.80;;
19095;SDS011;9680;52.520;13.332;2023-05-10T10:54:57;6.15;;;2.40;;
19095;SDS011;9680;52.520;13.332;2023-05-10T10:57:26;3.72;;;2.58;;
19095;SDS011;9680;52.520;13.332;2023-05-10T11:02:45;5.18;;;2.50;;
19095;SDS011;9680;52.520;13.332;2023-05-10T11:05:25;8.90;;;2.42;;
19095;SDS011;9680;52.520;13.332;2023-05-10T11:08:13;4.20;;;2.60;;
19095;SDS011;9680;52.520;13.332;2023-05-10T11:10:51;6.03;;;2.97;;
19095;SDS011;9680;52.520;13.332;2023-05-10T11:13:29;5.88;;;2.40;;
19095;SDS011;9680;52.520;13.332;2023-05-10T11:15:57;4.75;;;2.72;;
19095;SDS011;9680;52.520;13.332;2023-05-10T11:18:25;4.10;;;2.50;;
19095;SDS011;9680;52.520;13.332;2023-05-10T11:20:56;6.53;;;2.60;;
19095;SDS011;9680;52.520;13.332;2023-05-10T11:23:29;3.80;;;2.63;;
19095;SDS011;9680;52.520;13.332;2023-05-10T11:25:57;4.93;;;2.58;;
19095;SDS011;9680;52.520;13.332;2023-05-10T11:28:25;3.30;;;2.47;;
19095;SDS011;9680;52.520;13.332;2023-05-10T11:30:53;4.22;;;2.70;;
19095;SDS011;9680;52.520;13.332;2023-05-10T11:33:21;6.95;;;2.80;;
19095;SDS011;9680;52.520;13.332;2023-05-10T11:35:48;8.68;;;2.80;;
19095;SDS011;9680;52.520;13.332;2023-05-10T11:38:16;8.75;;;2.50;;
19095;SDS011;9680;52.520;13.332;2023-05-10T11:40:43;4.75;;;2.60;;
19095;SDS011;9680;52.520;13.332;2023-05-10T11:43:09;4.57;;;2.35;;
19095;SDS011;9680;52.520;13.332;2023-05-10T11:45:37;7.13;;;2.10;;
19095;SDS011;9680;52.520;13.332;2023-05-10T11:48:04;7.43;;;2.80;;
19095;SDS011;9680;52.520;13.332;2023-05-10T11:50:31;10.23;;;2.45;;
19095;SDS011;9680;52.520;13.332;2023-05-10T11:52:58;4.85;;;2.20;;
19095;SDS011;9680;52.520;13.332;2023-05-10T11:55:26;3.25;;;2.15;;
19095;SDS011;9680;52.520;13.332;2023-05-10T11:57:55;3.38;;;2.47;;
19095;SDS011;9680;52.520;13.332;2023-05-10T12:00:26;4.75;;;2.47;;
19095;SDS011;9680;52.520;13.332;2023-05-10T12:02:53;5.90;;;2.60;;
19095;SDS011;9680;52.520;13.332;2023-05-10T12:05:20;5.05;;;2.50;;
19095;SDS011;9680;52.520;13.332;2023-05-10T12:07:47;8.38;;;2.50;;
19095;SDS011;9680;52.520;13.332;2023-05-10T12:10:17;3.00;;;2.00;;
19095;SDS011;9680;52.520;13.332;2023-05-10T12:12:53;4.30;;;2.55;;
19095;SDS011;9680;52.520;13.332;2023-05-10T12:15:20;4.38;;;2.42;;
19095;SDS011;9680;52.520;13.332;2023-05-10T12:17:53;5.90;;;2.60;;
19095;SDS011;9680;52.520;13.332;2023-05-10T12:20:20;3.92;;;2.33;;
19095;SDS011;9680;52.520;13.332;2023-05-10T12:22:49;4.70;;;2.85;;
19095;SDS011;9680;52.520;13.332;2023-05-10T12:25:17;7.30;;;2.65;;
19095;SDS011;9680;52.520;13.332;2023-05-10T12:27:48;6.57;;;2.75;;
19095;SDS011;9680;52.520;13.332;2023-05-10T12:30:21;5.28;;;2.70;;
19095;SDS011;9680;52.520;13.332;2023-05-10T12:32:49;3.78;;;2.30;;
19095;SDS011;9680;52.520;13.332;2023-05-10T12:35:16;5.60;;;2.30;;
19095;SDS011;9680;52.520;13.332;2023-05-10T12:37:46;3.92;;;2.70;;
19095;SDS011;9680;52.520;13.332;2023-05-10T12:40:13;4.43;;;2.25;;
19095;SDS011;9680;52.520;13.332;2023-05-10T12:42:40;8.65;;;2.92;;
19095;SDS011;9680;52.520;13.332;2023-05-10T12:45:07;3.88;;;2.33;;
19095;SDS011;9680;52.520;13.332;2023-05-10T12:47:36;3.97;;;2.40;;
19095;SDS011;9680;52.520;13.332;2023-05-10T12:50:04;7.47;;;2.67;;
19095;SDS011;9680;52.520;13.332;2023-05-10T12:52:31;4.68;;;2.40;;
19095;SDS011;9680;52.520;13.332;2023-05-10T12:54:58;3.72;;;2.60;;
19095;SDS011;9680;52.520;13.332;2023-05-10T12:57:27;6.07;;;2.60;;
19095;SDS011;9680;52.520;13.332;2023-05-10T12:59:54;9.25;;;2.63;;
19095;SDS011;9680;52.520;13.332;2023-05-10T13:02:21;3.95;;;2.70;;
19095;SDS011;9680;52.520;13.332;2023-05-10T13:04:49;7.78;;;2.85;;
19095;SDS011;9680;52.520;13.332;2023-05-10T13:07:17;4.03;;;2.60;;
19095;SDS011;9680;52.520;13.332;2023-05-10T13:09:44;3.95;;;2.70;;
19095;SDS011;9680;52.520;13.332;2023-05-10T13:12:11;5.18;;;2.60;;
19095;SDS011;9680;52.520;13.332;2023-05-10T13:14:38;5.72;;;2.65;;
19095;SDS011;9680;52.520;13.332;2023-05-10T13:17:05;6.13;;;2.67;;
19095;SDS011;9680;52.520;13.332;2023-05-10T13:19:32;6.40;;;2.30;;
19095;SDS011;9680;52.520;13.332;2023-05-10T13:22:00;5.47;;;2.60;;
19095;SDS011;9680;52.520;13.332;2023-05-10T13:24:28;4.70;;;2.50;;
19095;SDS011;9680;52.520;13.332;2023-05-10T13:26:55;7.45;;;2.55;;
19095;SDS011;9680;52.520;13.332;2023-05-10T13:29:22;4.78;;;2.28;;
19095;SDS011;9680;52.520;13.332;2023-05-10T13:31:48;15.93;;;3.47;;
19095;SDS011;9680;52.520;13.332;2023-05-10T13:34:15;10.43;;;3.05;;
19095;SDS011;9680;52.520;13.332;2023-05-10T13:36:45;7.53;;;2.63;;
19095;SDS011;9680;52.520;13.332;2023-05-10T13:39:14;3.92;;;2.38;;
19095;SDS011;9680;52.520;13.332;2023-05-10T13:41:40;5.47;;;2.50;;
19095;SDS011;9680;52.520;13.332;2023-05-10T13:44:07;5.22;;;2.47;;
19095;SDS011;9680;52.520;13.332;2023-05-10T13:46:34;10.40;;;2.53;;
19095;SDS011;9680;52.520;13.332;2023-05-10T13:49:01;4.95;;;2.60;;
19095;SDS011;9680;52.520;13.332;2023-05-10T13:51:28;3.10;;;2.40;;
19095;SDS011;9680;52.520;13.332;2023-05-10T13:53:56;9.85;;;2.53;;
19095;SDS011;9680;52.520;13.332;2023-05-10T13:56:25;4.70;;;2.38;;
19095;SDS011;9680;52.520;13.332;2023-05-10T13:58:51;3.22;;;2.40;;
19095;SDS011;9680;52.520;13.332;2023-05-10T14:01:18;8.50;;;2.90;;
19095;SDS011;9680;52.520;13.332;2023-05-10T14:03:46;8.23;;;2.88;;
19095;SDS011;9680;52.520;13.332;2023-05-10T14:06:13;4.57;;;2.53;;
19095;SDS011;9680;52.520;13.332;2023-05-10T14:08:40;7.40;;;2.60;;
19095;SDS011;9680;52.520;13.332;2023-05-10T14:11:07;6.45;;;2.40;;
19095;SDS011;9680;52.520;13.332;2023-05-10T14:13:35;4.88;;;2.40;;
19095;SDS011;9680;52.520;13.332;2023-05-10T14:16:02;4.07;;;2.45;;
19095;SDS011;9680;52.520;13.332;2023-05-10T14:18:29;6.57;;;2.58;;
19095;SDS011;9680;52.520;13.332;2023-05-10T14:20:56;3.58;;;2.40;;
19095;SDS011;9680;52.520;13.332;2023-05-10T14:23:23;6.63;;;2.28;;
19095;SDS011;9680;52.520;13.332;2023-05-10T14:25:50;5.07;;;2.47;;
19095;SDS011;9680;52.520;13.332;2023-05-10T14:28:18;3.10;;;2.20;;
19095;SDS011;9680;52.520;13.332;2023-05-10T14:30:47;5.53;;;2.05;;
19095;SDS011;9680;52.520;13.332;2023-05-10T14:33:14;3.67;;;2.30;;
19095;SDS011;9680;52.520;13.332;2023-05-10T14:35:40;3.97;;;2.17;;
19095;SDS011;9680;52.520;13.332;2023-05-10T14:38:07;4.50;;;3.00;;
19095;SDS011;9680;52.520;13.332;2023-05-10T14:40:35;3.70;;;2.35;;
19095;SDS011;9680;52.520;13.332;2023-05-10T14:43:02;5.13;;;2.92;;
19095;SDS011;9680;52.520;13.332;2023-05-10T14:45:30;5.80;;;2.33;;
19095;SDS011;9680;52.520;13.332;2023-05-10T14:47:58;4.60;;;2.85;;
19095;SDS011;9680;52.520;13.332;2023-05-10T14:50:25;4.15;;;2.28;;
19095;SDS011;9680;52.520;13.332;2023-05-10T14:52:52;9.73;;;2.50;;
19095;SDS011;9680;52.520;13.332;2023-05-10T14:55:18;6.28;;;2.65;;
19095;SDS011;9680;52.520;13.332;2023-05-10T14:57:45;5.15;;;2.30;;
19095;SDS011;9680;52.520;13.332;2023-05-10T15:00:15;7.38;;;2.63;;
19095;SDS011;9680;52.520;13.332;2023-05-10T15:02:42;8.23;;;2.28;;